Terminal Aerodrome Forecast
Issued by NWS Cleveland, OH

Home | Current Version | Previous Version | Text Only | Print | Product List | Glossary Off
Versions: 1 2 3 4 5 6 7 8 9 10 11 12 13

000
FTUS41 KCLE 202323
TAFERI
TAF
KERI 202323Z 2100/2124 04004KT P6SM SCT250
      TEMPO 2109/2113 4SM BR
     FM211500 33004KT P6SM FEW250
     FM211800 02008KT P6SM FEW080 FEW250
     FM212300 05006KT P6SM FEW080 FEW250=

USA.gov is the U.S. government's official web portal to all federal, state and local government web resources and services.